Time;durP1;ratioP1;P1;durP2;ratioP2;P2;SDS_P1;SDS_P2;PMS_P1;PMS_P2;Temp;Humidity;BMP_temperature;BMP_pressure;BME280_temperature;BME280_humidity;BME280_pressure;Samples;Min_cycle;Max_cycle;Signal;HPM_P1;HPM_P2
2023/01/03 00:00:45;;;;;;;10.80;8.93;;;;;;;7.71;100.00;100132.47;1761284;80;21377;-63
2023/01/03 00:03:17;;;;;;;9.98;8.93;;;;;;;7.73;100.00;100132.84;1765643;80;20974;-63
2023/01/03 00:05:41;;;;;;;9.78;8.75;;;;;;;7.74;100.00;100124.10;1774891;80;21416;-63
2023/01/03 00:08:08;;;;;;;8.98;8.00;;;;;;;7.72;100.00;100115.42;1765502;80;21448;-63
2023/01/03 00:10:35;;;;;;;10.00;8.88;;;;;;;7.70;100.00;100121.58;1762035;80;21842;-63
2023/01/03 00:13:02;;;;;;;10.90;8.85;;;;;;;7.67;100.00;100126.45;1755917;80;21041;-63
2023/01/03 00:15:36;;;;;;;12.37;8.75;;;;;;;7.69;100.00;100125.95;1769104;80;21533;-63
2023/01/03 00:18:03;;;;;;;9.85;8.88;;;;;;;7.69;100.00;100123.80;1765417;80;21627;-62
2023/01/03 00:20:33;;;;;;;9.20;8.38;;;;;;;7.66;100.00;100119.93;1766234;80;21497;-63
2023/01/03 00:23:00;;;;;;;10.45;9.20;;;;;;;7.65;100.00;100115.58;1761547;80;21929;-63
2023/01/03 00:25:27;;;;;;;9.68;8.63;;;;;;;7.66;100.00;100121.23;1756450;80;26012;-63
2023/01/03 00:27:54;;;;;;;10.63;9.53;;;;;;;7.62;100.00;100119.59;1765853;80;20942;-63
2023/01/03 00:30:21;;;;;;;10.32;9.20;;;;;;;7.60;100.00;100112.63;1762546;80;21471;-62
2023/01/03 00:32:48;;;;;;;11.48;9.40;;;;;;;7.58;100.00;100118.80;1760708;80;21578;-63
2023/01/03 00:35:15;;;;;;;12.10;8.75;;;;;;;7.58;100.00;100110.95;1766364;80;21775;-64
2023/01/03 00:37:42;;;;;;;9.95;8.88;;;;;;;7.59;100.00;100110.03;1770559;80;21415;-63
2023/01/03 00:40:10;;;;;;;13.10;9.73;;;;;;;7.58;100.00;100101.80;1766244;80;21580;-62
2023/01/03 00:43:27;;;;;;;10.85;9.55;;;;;;;7.57;100.00;100097.44;1762278;80;21065;-63
2023/01/03 00:45:07;;;;;;;10.18;9.10;;;;;;;7.57;100.00;100096.13;1763256;80;21671;-63
2023/01/03 00:47:34;;;;;;;9.78;8.78;;;;;;;7.57;100.00;100094.82;1758637;79;21799;-65
2023/01/03 00:50:01;;;;;;;11.55;8.98;;;;;;;7.55;100.00;100096.62;1770269;80;21541;-65
2023/01/03 00:52:27;;;;;;;9.93;8.68;;;;;;;7.56;100.00;100095.73;1763053;80;21641;-63
2023/01/03 00:54:54;;;;;;;10.03;9.03;;;;;;;7.58;100.00;100090.02;1766011;80;21521;-63
2023/01/03 00:57:22;;;;;;;9.85;8.55;;;;;;;7.59;100.00;100079.52;1762515;80;21568;-63
2023/01/03 00:59:49;;;;;;;10.32;9.13;;;;;;;7.55;100.00;100078.30;1766052;80;21851;-63
2023/01/03 01:02:19;;;;;;;10.32;8.45;;;;;;;7.54;100.00;100080.52;1768732;80;21419;-63
2023/01/03 01:04:44;;;;;;;13.60;8.78;;;;;;;7.54;100.00;100073.98;1763863;80;21002;-65
2023/01/03 01:07:12;;;;;;;10.00;8.80;;;;;;;7.55;100.00;100074.37;1753393;80;21514;-63
2023/01/03 01:09:39;;;;;;;10.00;9.00;;;;;;;7.56;100.00;100070.87;1764660;80;21525;-64
2023/01/03 01:12:06;;;;;;;10.32;9.18;;;;;;;7.55;100.00;100069.14;1765781;80;21842;-63
2023/01/03 01:14:33;;;;;;;11.20;9.38;;;;;;;7.53;100.00;100069.17;1766014;80;21443;-63
2023/01/03 01:17:07;;;;;;;11.48;9.00;;;;;;;7.50;100.00;100071.88;1765848;79;22542;-64
2023/01/03 01:19:39;;;;;;;10.32;9.05;;;;;;;7.49;100.00;100065.37;1757472;80;21498;-61
2023/01/03 01:22:06;;;;;;;10.18;8.78;;;;;;;7.50;100.00;100064.03;1725756;82;21462;-64
2023/01/03 01:24:32;;;;;;;10.32;9.25;;;;;;;7.52;100.00;100059.62;1701309;83;22038;-64
2023/01/03 01:26:59;;;;;;;10.10;9.05;;;;;;;7.51;100.00;100057.03;1699623;82;21583;-65
2023/01/03 01:29:26;;;;;;;11.10;9.50;;;;;;;7.52;100.00;100050.45;1705175;82;21122;-64
2023/01/03 01:31:53;;;;;;;9.95;8.95;;;;;;;7.52;100.00;100043.06;1714375;82;21578;-66
2023/01/03 01:34:19;;;;;;;14.07;9.53;;;;;;;7.50;100.00;100037.02;1699964;83;21438;-65
2023/01/03 01:36:46;;;;;;;10.05;9.03;;;;;;;7.50;100.00;100032.63;1702040;83;21537;-64
2023/01/03 01:39:23;;;;;;;11.08;9.55;;;;;;;7.47;100.00;100027.92;1707734;82;21514;-65
2023/01/03 01:44:55;;;;;;;10.53;8.73;;;;;;;7.45;100.00;100016.17;1702226;82;21634;-65
2023/01/03 01:47:48;;;;;;;12.33;9.65;;;;;;;7.45;100.00;100012.70;1706683;82;21590;-65
2023/01/03 01:50:30;;;;;;;10.55;9.08;;;;;;;7.44;100.00;100013.59;1691127;82;21839;-65
2023/01/03 01:53:24;;;;;;;9.98;8.80;;;;;;;7.40;100.00;100007.14;1705976;82;21480;-65
2023/01/03 01:55:55;;;;;;;12.13;9.35;;;;;;;7.39;100.00;100001.94;1706284;83;21485;-64
2023/01/03 01:58:25;;;;;;;10.93;9.35;;;;;;;7.37;100.00;100001.97;1704714;82;21571;-65
2023/01/03 02:00:51;;;;;;;9.88;8.88;;;;;;;7.35;100.00;99999.84;1700787;83;20933;-64
2023/01/03 02:03:18;;;;;;;10.25;9.18;;;;;;;7.39;100.00;99991.48;1708988;82;21880;-64
2023/01/03 02:05:48;;;;;;;10.30;9.20;;;;;;;7.36;100.00;99991.08;1703819;82;21576;-65
2023/01/03 02:08:16;;;;;;;9.65;8.63;;;;;;;7.34;100.00;99988.95;1705460;83;21513;-64
2023/01/03 02:11:18;;;;;;;9.75;8.73;;;;;;;7.34;100.00;99985.03;1702111;82;21463;-64
2023/01/03 02:14:16;;;;;;;9.65;8.70;;;;;;;7.33;100.00;99979.41;1709134;82;21678;-64
2023/01/03 02:16:57;;;;;;;11.78;9.18;;;;;;;7.32;100.00;99981.59;1699266;80;21827;-64
2023/01/03 02:19:38;;;;;;;9.55;8.50;;;;;;;7.31;100.00;99980.31;1742688;80;21431;-64
2023/01/03 02:22:19;;;;;;;13.00;9.20;;;;;;;7.31;100.00;99974.66;1738771;81;21487;-64
2023/01/03 02:25:07;;;;;;;9.95;8.80;;;;;;;7.32;100.00;99966.36;1725449;82;21717;-64
2023/01/03 02:28:10;;;;;;;11.80;9.03;;;;;;;7.31;100.00;99957.66;1773646;79;21530;-64
2023/01/03 02:31:01;;;;;;;10.60;9.23;;;;;;;7.30;100.00;99958.55;1742867;79;21795;-64
2023/01/03 02:33:51;;;;;;;12.43;9.73;;;;;;;7.31;100.00;99948.92;1771496;79;21017;-64
2023/01/03 02:36:23;;;;;;;11.03;9.23;;;;;;;7.30;100.00;99941.54;1772273;79;21707;-63
2023/01/03 02:39:06;;;;;;;11.20;9.30;;;;;;;7.30;100.00;99935.45;1776496;79;21525;-63
2023/01/03 02:41:46;;;;;;;11.38;9.50;;;;;;;7.30;100.00;99941.54;1727431;80;21005;-64
2023/01/03 02:44:32;;;;;;;9.33;8.28;;;;;;;7.24;100.00;99933.85;1770230;79;21817;-63
2023/01/03 02:47:08;;;;;;;10.10;8.80;;;;;;;7.20;100.00;99925.67;1773171;79;21537;-64
2023/01/03 02:49:38;;;;;;;11.60;9.23;;;;;;;7.18;100.00;99928.32;1771940;79;21560;-64
2023/01/03 02:52:09;;;;;;;9.85;8.85;;;;;;;7.18;100.00;99928.32;1770003;79;21503;-64
2023/01/03 02:54:54;;;;;;;9.93;8.93;;;;;;;7.18;100.00;99924.40;1742128;80;21537;-64
2023/01/03 02:57:25;;;;;;;9.63;8.68;;;;;;;7.16;100.00;99922.73;1774461;78;21825;-59
2023/01/03 02:59:57;;;;;;;10.18;8.55;;;;;;;7.16;100.00;99931.88;1755383;80;21581;-65
2023/01/03 03:02:28;;;;;;;10.60;9.23;;;;;;;7.05;100.00;99912.52;1748061;80;21535;-64
2023/01/03 03:04:56;;;;;;;9.60;7.83;;;;;;;7.14;100.00;99924.49;1751213;80;21513;-64
2023/01/03 03:07:35;;;;;;;11.53;8.38;;;;;;;7.13;100.00;99925.41;1771731;78;21546;-65
2023/01/03 03:15:46;;;;;;;9.13;7.90;;;;;;;7.02;100.00;99931.73;1777767;79;21498;-65
2023/01/03 03:18:18;;;;;;;9.65;7.92;;;;;;;6.97;100.00;99928.85;1770600;80;21415;-65
2023/01/03 03:26:24;;;;;;;8.63;7.80;;;;;;;6.85;100.00;99929.97;1764860;80;21509;-64
2023/01/03 03:28:55;;;;;;;10.13;9.00;;;;;;;6.79;100.00;99930.13;1765038;79;21530;-64
2023/01/03 03:31:46;;;;;;;9.20;7.97;;;;;;;6.78;100.00;99931.88;1760998;79;22060;-64
2023/01/03 03:34:30;;;;;;;8.38;7.67;;;;;;;6.79;100.00;99925.74;1759290;79;21522;-64
2023/01/03 03:37:02;;;;;;;9.18;8.25;;;;;;;6.70;100.00;99928.56;1761736;80;22184;-64
2023/01/03 03:45:50;;;;;;;8.65;7.72;;;;;;;6.63;100.00;99938.77;1755387;80;21518;-65
2023/01/03 03:48:26;;;;;;;10.88;9.15;;;;;;;6.66;100.00;99923.45;1745255;80;21439;-64
2023/01/03 03:51:04;;;;;;;9.78;8.83;;;;;;;6.57;100.00;99921.47;1766609;80;21877;-64
2023/01/03 03:53:33;;;;;;;9.68;8.08;;;;;;;6.61;100.00;99914.39;1768410;80;21415;-64
2023/01/03 03:56:12;;;;;;;14.33;9.33;;;;;;;6.59;100.00;99914.45;1760889;80;21561;-64
2023/01/03 03:58:41;;;;;;;9.08;8.18;;;;;;;6.60;100.00;99906.16;1757380;80;21096;-65
2023/01/03 04:01:10;;;;;;;10.72;8.63;;;;;;;6.61;100.00;99904.82;1691489;82;21041;-64
2023/01/03 04:03:38;;;;;;;11.00;8.88;;;;;;;6.58;100.00;99903.58;1703376;83;21892;-64
2023/01/03 04:06:10;;;;;;;9.88;8.88;;;;;;;6.61;100.00;99905.25;1702493;82;21484;-64
2023/01/03 04:08:37;;;;;;;13.35;9.55;;;;;;;6.60;100.00;99895.70;1665585;83;21488;-64
2023/01/03 04:11:04;;;;;;;8.48;7.72;;;;;;;6.59;100.00;99904.00;1699442;82;21564;-64
2023/01/03 04:13:34;;;;;;;10.05;8.78;;;;;;;6.59;100.00;99901.39;1704490;82;21512;-64
2023/01/03 04:16:02;;;;;;;10.40;9.28;;;;;;;6.57;100.00;99891.42;1708682;83;21541;-64
2023/01/03 04:18:29;;;;;;;10.10;9.10;;;;;;;6.58;100.00;99893.58;1713592;82;21582;-64
2023/01/03 04:20:56;;;;;;;10.35;9.08;;;;;;;6.52;100.00;99895.88;1712449;81;21714;-64
2023/01/03 04:23:22;;;;;;;11.28;9.08;;;;;;;6.50;100.00;99895.48;1727742;81;21459;-64
2023/01/03 04:25:50;;;;;;;10.72;9.63;;;;;;;6.51;100.00;99886.77;1703995;81;21573;-64
2023/01/03 04:28:17;;;;;;;10.80;9.13;;;;;;;6.50;100.00;99889.83;1727505;82;21392;-61
2023/01/03 04:30:44;;;;;;;10.43;8.98;;;;;;;6.48;100.00;99885.52;1687783;83;21434;-65
2023/01/03 04:33:11;;;;;;;9.28;8.28;;;;;;;6.44;100.00;99892.56;1698018;82;21539;-65
2023/01/03 04:35:38;;;;;;;11.63;9.65;;;;;;;6.45;100.00;99892.14;1712698;81;21504;-65
2023/01/03 04:38:05;;;;;;;10.58;9.15;;;;;;;6.40;100.00;99883.95;1711537;81;21574;-66
2023/01/03 04:40:37;;;;;;;10.60;9.53;;;;;;;6.40;100.00;99885.69;1726631;82;22194;-65
2023/01/03 04:45:49;;;;;;;9.73;8.00;;;;;;;6.39;100.00;99877.45;1714827;82;21557;-65
2023/01/03 04:48:16;;;;;;;10.05;8.90;;;;;;;6.42;100.00;99879.55;1710136;81;21518;-65
2023/01/03 04:50:53;;;;;;;10.23;9.13;;;;;;;6.45;100.00;99879.92;1696552;81;21465;-66
2023/01/03 04:53:21;;;;;;;9.53;8.45;;;;;;;6.44;100.00;99878.19;1716572;81;21517;-64
2023/01/03 04:55:49;;;;;;;10.78;8.40;;;;;;;6.41;100.00;99872.59;1709111;81;21483;-64
2023/01/03 04:58:16;;;;;;;10.95;8.50;;;;;;;6.51;100.00;99871.94;1712758;81;21416;-65
2023/01/03 05:00:42;;;;;;;10.98;8.60;;;;;;;6.49;100.00;99871.13;1709621;81;21592;-65
2023/01/03 05:03:09;;;;;;;10.72;8.55;;;;;;;6.48;100.00;99868.54;1714533;81;21497;-65
2023/01/03 05:05:37;;;;;;;11.68;8.90;;;;;;;6.46;100.00;99871.21;1715794;81;21900;-65
2023/01/03 05:08:10;;;;;;;9.45;8.45;;;;;;;6.40;100.00;99869.59;1711782;81;21931;-65
2023/01/03 05:10:38;;;;;;;9.63;8.65;;;;;;;6.41;100.00;99870.45;1701368;83;21079;-65
2023/01/03 05:13:05;;;;;;;9.15;8.25;;;;;;;6.39;100.00;99867.86;1711615;82;21576;-65
2023/01/03 05:15:37;;;;;;;11.38;9.30;;;;;;;6.40;100.00;99864.80;1719936;82;21605;-65
2023/01/03 05:18:05;;;;;;;9.33;8.35;;;;;;;6.36;100.00;99858.77;1689214;83;21639;-65
2023/01/03 05:26:13;;;;;;;11.15;9.10;;;;;;;6.36;100.00;99852.70;1716766;82;21614;-66
2023/01/03 05:28:41;;;;;;;9.58;8.58;;;;;;;6.38;100.00;99854.38;1736750;81;21486;-66
2023/01/03 05:31:07;;;;;;;11.78;8.85;;;;;;;6.43;100.00;99849.06;1740640;81;21561;-65
2023/01/03 05:33:38;;;;;;;9.13;8.23;;;;;;;6.43;100.00;99854.28;1743697;81;21672;-65
2023/01/03 05:36:06;;;;;;;9.95;8.60;;;;;;;6.47;100.00;99851.16;1739801;81;21679;-65
2023/01/03 05:38:32;;;;;;;9.68;8.68;;;;;;;6.50;100.00;99844.55;1720847;81;21516;-65
2023/01/03 05:41:00;;;;;;;9.60;8.23;;;;;;;6.50;100.00;99849.34;1733727;81;21577;-65
2023/01/03 05:43:26;;;;;;;9.38;7.53;;;;;;;6.54;100.00;99844.45;1740129;80;21395;-65
2023/01/03 05:45:53;;;;;;;9.60;8.23;;;;;;;6.56;100.00;99847.89;1731814;81;21494;-65
2023/01/03 05:48:20;;;;;;;9.15;8.25;;;;;;;6.58;100.00;99844.79;1740930;81;20978;-65
2023/01/03 05:50:48;;;;;;;10.00;8.95;;;;;;;6.56;100.00;99843.13;1735255;81;21474;-65
2023/01/03 05:53:15;;;;;;;9.53;8.58;;;;;;;6.56;100.00;99846.58;1734951;81;21415;-66
2023/01/03 05:55:42;;;;;;;10.58;8.93;;;;;;;6.58;100.00;99848.70;1734822;81;21815;-66
2023/01/03 05:58:10;;;;;;;8.85;7.35;;;;;;;6.56;100.00;99848.34;1741174;80;21683;-65
2023/01/03 06:00:36;;;;;;;;;;;;;;;6.59;100.00;99850.44;1741448;81;21603;-66
2023/01/03 06:03:03;;;;;;;9.75;8.23;;;;;;;6.53;100.00;99851.02;1738944;81;20465;-66
2023/01/03 06:05:30;;;;;;;9.75;7.55;;;;;;;6.55;100.00;99855.30;1740456;81;21487;-65
2023/01/03 06:08:00;;;;;;;9.60;7.72;;;;;;;6.58;100.00;99859.16;1734581;80;22007;-65
2023/01/03 06:10:29;;;;;;;8.98;7.90;;;;;;;6.58;100.00;99860.47;1740975;80;21522;-65
2023/01/03 06:12:56;;;;;;;9.63;7.87;;;;;;;6.62;100.00;99862.11;1741883;81;21597;-66
2023/01/03 06:15:22;;;;;;;9.65;8.65;;;;;;;6.64;100.00;99867.30;1738588;81;21076;-65
2023/01/03 06:17:56;;;;;;;8.85;7.95;;;;;;;6.67;100.00;99852.88;1737736;80;21569;-62
2023/01/03 06:20:25;;;;;;;9.20;8.23;;;;;;;6.68;100.00;99851.11;1761026;80;21761;-61
2023/01/03 06:22:53;;;;;;;9.85;8.30;;;;;;;6.72;100.00;99852.75;1770343;79;21534;-61
2023/01/03 06:25:20;;;;;;;8.68;7.80;;;;;;;6.77;100.00;99851.75;1757439;80;28737;-60
2023/01/03 06:27:47;;;;;;;7.90;7.20;;;;;;;6.79;100.00;99849.10;1776758;78;21442;-59
2023/01/03 06:30:14;;;;;;;9.50;8.03;;;;;;;6.84;100.00;99849.86;1770296;79;21481;-60
2023/01/03 06:32:42;;;;;;;9.95;8.23;;;;;;;6.82;100.00;99851.20;1771768;79;21911;-59
2023/01/03 06:35:09;;;;;;;9.88;7.80;;;;;;;6.87;100.00;99848.45;1764992;80;21561;-60
2023/01/03 06:37:36;;;;;;;8.93;8.00;;;;;;;6.86;100.00;99843.30;1772213;79;21391;-60
2023/01/03 06:40:05;;;;;;;8.80;7.90;;;;;;;6.88;100.00;99849.34;1771230;79;21486;-59
2023/01/03 06:42:41;;;;;;;8.50;7.60;;;;;;;6.94;100.00;99840.88;1782461;79;20981;-60
2023/01/03 06:53:35;;;;;;;7.97;6.95;;;;;;;7.05;100.00;99851.53;1775653;80;21576;-60
2023/01/03 06:56:02;;;;;;;8.38;7.53;;;;;;;7.15;100.00;99843.86;1782680;79;21506;-60
2023/01/03 06:58:29;;;;;;;8.55;7.50;;;;;;;7.24;100.00;99842.77;1767693;79;21840;-61
2023/01/03 07:00:56;;;;;;;8.70;7.80;;;;;;;7.30;100.00;99853.91;1771916;79;21624;-60
2023/01/03 07:03:23;;;;;;;;;;;;;;;7.32;100.00;99860.42;1777934;79;21422;-60
2023/01/03 07:05:50;;;;;;;9.60;8.68;;;;;;;7.31;100.00;99856.95;1773748;80;20412;-60
2023/01/03 07:08:19;;;;;;;12.15;9.55;;;;;;;7.23;100.00;99868.05;1775630;79;21565;-60
2023/01/03 07:10:47;;;;;;;10.80;8.60;;;;;;;7.20;100.00;99882.52;1775115;80;21716;-60
2023/01/03 07:16:01;;;;;;;9.93;8.90;;;;;;;7.24;100.00;99881.55;1775693;79;21617;-60
2023/01/03 07:18:28;;;;;;;10.82;9.35;;;;;;;7.25;100.00;99885.86;1774496;79;21624;-60
2023/01/03 07:20:54;;;;;;;9.88;8.80;;;;;;;7.23;100.00;99888.97;1772730;79;21403;-60
2023/01/03 07:23:21;;;;;;;10.60;9.53;;;;;;;7.28;100.00;99891.03;1773528;80;21696;-60
2023/01/03 07:25:48;;;;;;;11.78;9.03;;;;;;;7.30;100.00;99893.16;1773892;80;21537;-60
2023/01/03 07:28:16;;;;;;;9.35;8.45;;;;;;;7.36;100.00;99895.60;1746192;79;21672;-59
2023/01/03 07:30:44;;;;;;;;;;;;;;;7.41;100.00;99905.97;1774045;79;21494;-60
2023/01/03 07:33:13;;;;;;;11.65;9.23;;;;;;;7.49;100.00;99908.38;1776936;79;20139;-60
2023/01/03 07:35:40;;;;;;;12.18;8.83;;;;;;;7.51;100.00;99907.89;1774133;79;21807;-61
2023/01/03 07:38:08;;;;;;;9.95;8.20;;;;;;;7.64;100.00;99916.28;1781760;79;21570;-61
2023/01/03 07:40:34;;;;;;;;;;;;;;;7.79;100.00;99906.70;1775910;79;21403;-60
2023/01/03 07:45:46;;;;;;;8.80;7.85;;;;;;;8.05;100.00;99906.45;1771392;80;21447;-59
2023/01/03 07:48:15;;;;;;;9.03;8.13;;;;;;;8.18;100.00;99895.56;1774134;79;20979;-60
2023/01/03 07:50:43;;;;;;;10.53;8.33;;;;;;;8.23;100.00;99898.50;1779754;79;21502;-59
2023/01/03 07:53:15;;;;;;;8.13;7.08;;;;;;;8.31;100.00;99900.00;1777697;79;21639;-60
2023/01/03 07:55:38;;;;;;;8.28;7.47;;;;;;;8.48;100.00;99907.39;1770784;79;21095;-61
2023/01/03 07:58:05;;;;;;;9.73;8.43;;;;;;;8.57;100.00;99896.64;1767104;80;21616;-61
2023/01/03 08:02:20;;;;;;;9.20;7.72;;;;;;;8.25;100.00;99884.91;1789907;79;22895;-60
2023/01/03 08:04:47;;;;;;;11.12;8.55;;;;;;;8.53;100.00;99898.95;1766319;80;21470;-59
2023/01/03 08:07:14;;;;;;;7.80;7.00;;;;;;;8.58;100.00;99887.00;1755413;80;21940;-60
2023/01/03 08:15:13;;;;;;;9.58;8.43;;;;;;;8.71;100.00;99888.80;1757150;80;21489;-59
2023/01/03 08:17:42;;;;;;;9.55;7.90;;;;;;;8.73;100.00;99885.67;1758725;80;21578;-60
2023/01/03 08:20:09;;;;;;;8.83;7.92;;;;;;;8.76;100.00;99889.52;1760238;80;22092;-61
2023/01/03 08:22:36;;;;;;;8.83;8.00;;;;;;;8.82;100.00;99883.23;1756994;80;21484;-60
2023/01/03 08:25:03;;;;;;;8.30;7.50;;;;;;;8.78;100.00;99885.08;1764601;80;21518;-61
2023/01/03 08:27:30;;;;;;;8.25;7.45;;;;;;;8.88;100.00;99883.02;1735000;80;21487;-60
2023/01/03 08:29:56;;;;;;;8.85;7.25;;;;;;;8.90;100.00;99883.37;1759085;80;21399;-59
2023/01/03 08:32:24;;;;;;;9.73;8.75;;;;;;;8.97;100.00;99880.11;1765307;80;21797;-60
2023/01/03 08:34:51;;;;;;;10.38;9.33;;;;;;;8.92;100.00;99882.86;1758905;80;20981;-60
2023/01/03 08:37:18;;;;;;;11.08;9.08;;;;;;;8.96;100.00;99863.49;1766008;80;21617;-60
2023/01/03 08:39:51;;;;;;;8.78;7.87;;;;;;;8.98;100.00;99875.25;1758921;79;21427;-60
2023/01/03 08:42:19;;;;;;;9.85;8.53;;;;;;;9.04;100.00;99875.50;1764398;80;21510;-60
2023/01/03 08:44:47;;;;;;;10.50;9.40;;;;;;;9.15;100.00;99884.76;1760844;79;21942;-59
2023/01/03 08:47:14;;;;;;;9.28;8.20;;;;;;;9.12;100.00;99887.93;1754494;80;21572;-59
2023/01/03 08:49:40;;;;;;;9.63;8.28;;;;;;;9.23;100.00;99874.44;1759648;80;21542;-60
2023/01/03 08:52:07;;;;;;;10.03;8.18;;;;;;;9.26;100.00;99884.84;1735425;81;21530;-59
2023/01/03 08:54:34;;;;;;;8.13;7.33;;;;;;;9.37;100.00;99888.42;1706400;83;21503;-60
2023/01/03 08:57:01;;;;;;;11.25;8.93;;;;;;;9.43;100.00;99886.42;1700742;82;21717;-61
2023/01/03 08:59:28;;;;;;;11.03;8.80;;;;;;;9.40;100.00;99881.30;1714986;81;21598;-61
2023/01/03 09:01:59;;;;;;;10.10;8.78;;;;;;;9.47;100.00;99877.53;1700634;83;21665;-60
2023/01/03 09:04:26;;;;;;;9.48;8.58;;;;;;;9.51;100.00;99872.61;1743751;80;21568;-62
2023/01/03 09:06:53;;;;;;;7.85;7.05;;;;;;;9.67;100.00;99887.34;1756270;80;21546;-62
2023/01/03 09:09:20;;;;;;;8.38;7.45;;;;;;;9.82;100.00;99878.54;1687645;82;21425;-61
2023/01/03 09:11:47;;;;;;;8.65;7.55;;;;;;;9.88;100.00;99879.16;1740907;80;21551;-61
2023/01/03 09:14:14;;;;;;;8.15;7.37;;;;;;;9.99;100.00;99870.05;1728807;80;21588;-60
2023/01/03 09:16:40;;;;;;;7.65;6.87;;;;;;;10.04;100.00;99867.66;1746314;80;21459;-60
2023/01/03 09:19:07;;;;;;;7.67;6.97;;;;;;;10.08;100.00;99861.36;1746554;80;21455;-59
2023/01/03 09:21:34;;;;;;;10.70;8.58;;;;;;;10.17;100.00;99861.92;1755657;80;21890;-60
2023/01/03 09:24:01;;;;;;;7.95;7.25;;;;;;;10.25;100.00;99869.92;1743407;80;21575;-60
2023/01/03 09:26:29;;;;;;;5.83;5.33;;;;;;;10.32;100.00;99874.08;1748145;80;21540;-60
2023/01/03 09:28:56;;;;;;;7.95;7.05;;;;;;;10.42;100.00;99872.41;1753340;80;21511;-60
2023/01/03 09:31:22;;;;;;;8.63;7.42;;;;;;;10.44;100.00;99862.23;1740854;80;21558;-60
2023/01/03 09:33:50;;;;;;;11.88;7.80;;;;;;;10.46;100.00;99867.43;1747182;80;21907;-60
2023/01/03 09:36:18;;;;;;;8.85;7.67;;;;;;;10.54;100.00;99873.23;1744212;80;21476;-60
2023/01/03 09:38:45;;;;;;;8.65;7.78;;;;;;;10.56;100.00;99872.71;1748903;80;20997;-61
2023/01/03 09:41:16;;;;;;;8.03;7.22;;;;;;;10.64;100.00;99863.20;1757317;80;21498;-60
2023/01/03 09:43:45;;;;;;;6.87;6.25;;;;;;;10.78;100.00;99867.47;1743088;80;21568;-61
2023/01/03 09:46:20;;;;;;;8.58;7.65;;;;;;;10.88;100.00;99864.00;1683256;82;21837;-60
2023/01/03 09:48:47;;;;;;;8.20;6.42;;;;;;;10.91;100.00;99854.69;1744234;80;21002;-60
2023/01/03 10:06:16;;;;;;;6.30;5.62;;;;;;;11.50;100.00;99844.71;1731985;80;21450;-62
2023/01/03 10:09:21;;;;;;;8.60;6.60;;;;;;;11.75;100.00;99840.16;1760086;80;21561;-63
2023/01/03 10:12:06;;;;;;;8.13;7.00;;;;;;;11.95;100.00;99834.03;1692597;83;21594;-61
2023/01/03 10:15:00;;;;;;;10.25;7.53;;;;;;;12.03;100.00;99820.88;1685538;83;21778;-61
2023/01/03 10:17:50;;;;;;;10.30;7.67;;;;;;;12.27;100.00;99819.36;1708437;82;21500;-61
2023/01/03 10:20:45;;;;;;;9.25;7.08;;;;;;;12.54;100.00;99809.27;1706284;82;21580;-63
2023/01/03 10:23:12;;;;;;;7.95;7.15;;;;;;;13.04;100.00;99806.40;1700384;82;21553;-60
2023/01/03 10:25:42;;;;;;;8.03;7.22;;;;;;;13.38;100.00;99801.59;1709427;83;21634;-62
2023/01/03 10:28:25;;;;;;;7.87;6.45;;;;;;;13.69;100.00;99800.45;1726212;82;21789;-61
2023/01/03 10:31:12;;;;;;;6.75;6.08;;;;;;;14.12;100.00;99799.45;1720123;82;21824;-61
2023/01/03 10:33:44;;;;;;;9.38;6.90;;;;;;;14.47;100.00;99796.66;1718524;82;21439;-62
2023/01/03 10:36:11;;;;;;;7.45;6.65;;;;;;;14.02;100.00;99793.34;1725334;82;21585;-61
2023/01/03 10:38:39;;;;;;;6.45;5.78;;;;;;;13.73;100.00;99801.55;1704473;82;21093;-63
2023/01/03 10:41:24;;;;;;;8.40;7.05;;;;;;;13.49;100.00;99807.65;1690709;83;21923;-62
2023/01/03 10:44:00;;;;;;;7.33;6.37;;;;;;;13.66;100.00;99813.84;1700135;83;21492;-63
2023/01/03 10:46:28;;;;;;;7.67;6.70;;;;;;;14.03;100.00;99806.09;1699893;83;22104;-61
2023/01/03 10:48:57;;;;;;;6.78;5.67;;;;;;;14.34;100.00;99809.23;1690333;83;21581;-61
2023/01/03 10:51:48;;;;;;;5.95;5.45;;;;;;;14.68;100.00;99808.68;1709970;83;21061;-61
2023/01/03 10:54:30;;;;;;;7.92;5.42;;;;;;;15.04;100.00;99803.52;1705025;83;21872;-61
2023/01/03 10:56:56;;;;;;;6.22;5.53;;;;;;;15.45;100.00;99798.88;1701340;83;21574;-62
2023/01/03 10:59:30;;;;;;;7.75;6.37;;;;;;;15.82;100.00;99793.98;1701625;83;21574;-61
2023/01/03 11:02:12;;;;;;;5.95;5.45;;;;;;;15.78;100.00;99798.26;1686913;83;21531;-61
2023/01/03 11:04:39;;;;;;;6.30;5.65;;;;;;;15.86;100.00;99806.12;1685267;82;21601;-64
2023/01/03 11:07:12;;;;;;;6.20;5.60;;;;;;;15.63;100.00;99816.77;1696722;82;21755;-61
2023/01/03 11:09:53;;;;;;;6.45;5.35;;;;;;;15.09;100.00;99818.67;1650823;83;21569;-60
2023/01/03 11:12:39;;;;;;;6.60;5.97;;;;;;;14.58;100.00;99817.62;1689379;82;21513;-61
2023/01/03 11:15:33;;;;;;;6.15;5.55;;;;;;;14.69;100.00;99824.95;1682144;83;21099;-61
2023/01/03 11:18:05;;;;;;;7.90;4.70;;;;;;;15.16;100.00;99811.20;1675522;82;21643;-60
2023/01/03 11:20:47;;;;;;;6.92;5.33;;;;;;;15.18;100.00;99820.78;1688168;83;21769;-60
2023/01/03 11:23:34;;;;;;;5.22;4.72;;;;;;;14.78;100.00;99828.85;1692179;82;21579;-61
2023/01/03 11:26:09;;;;;;;5.47;4.65;;;;;;;14.72;100.00;99831.86;1689683;82;21521;-64
2023/01/03 11:28:59;;;;;;;6.00;5.42;;;;;;;15.03;100.00;99830.08;1694620;82;21545;-61
2023/01/03 11:31:50;;;;;;;5.62;5.12;;;;;;;15.14;100.00;99831.63;1733756;80;21567;-59
2023/01/03 11:34:56;;;;;;;6.22;5.12;;;;;;;15.76;100.00;99816.91;1729944;82;21913;-59
2023/01/03 11:37:32;;;;;;;5.42;4.92;;;;;;;16.24;100.00;99816.13;1739413;82;25814;-61
2023/01/03 11:40:40;;;;;;;5.12;4.62;;;;;;;16.33;100.00;99816.86;1727235;82;21452;-61
2023/01/03 11:43:34;;;;;;;8.65;5.37;;;;;;;16.34;100.00;99830.97;1726824;80;21672;-61
2023/01/03 11:46:33;;;;;;;5.62;5.03;;;;;;;16.01;100.00;99824.66;1735347;80;21599;-62
2023/01/03 11:49:31;;;;;;;8.25;5.05;;;;;;;15.52;100.00;99838.64;1738568;82;21646;-61
2023/01/03 11:52:18;;;;;;;5.80;5.00;;;;;;;15.04;100.00;99845.88;1732892;81;21431;-60
2023/01/03 11:55:16;;;;;;;5.57;5.07;;;;;;;14.59;100.00;99855.50;1734364;82;21500;-60
2023/01/03 11:58:25;;;;;;;6.12;5.55;;;;;;;14.20;100.00;99862.02;1733852;80;21528;-62
2023/01/03 12:01:15;;;;;;;5.40;4.85;;;;;;;13.79;100.00;99870.39;1731936;80;21022;-61
2023/01/03 12:04:23;;;;;;;5.75;4.42;;;;;;;13.54;100.00;99870.80;1688235;83;21757;-60
2023/01/03 17:28:25;;;;;;;7.17;5.30;;;;;;;6.60;100.00;100151.31;1645308;85;21470;-68
2023/01/03 17:30:55;;;;;;;6.72;5.10;;;;;;;6.79;100.00;100152.27;1651084;85;21917;-68
2023/01/03 17:33:20;;;;;;;7.45;6.10;;;;;;;6.87;100.00;100152.98;1649657;85;21074;-67
2023/01/03 17:35:46;;;;;;;9.08;6.15;;;;;;;6.95;100.00;100155.02;1650456;85;21553;-67
2023/01/03 17:38:14;;;;;;;7.00;5.75;;;;;;;7.06;100.00;100161.77;1637723;85;21545;-67
2023/01/03 17:40:43;;;;;;;;;;;;;;;7.12;100.00;100155.98;1646757;85;21508;-67
2023/01/03 17:43:18;;;;;;;7.22;4.67;;;;;;;7.14;100.00;100152.00;1650167;85;21842;-67
2023/01/03 17:51:27;;;;;;;5.50;4.45;;;;;;;7.29;100.00;100156.94;1655893;84;21667;-65
2023/01/03 17:53:54;;;;;;;4.80;4.33;;;;;;;7.29;100.00;100156.94;1655827;84;21615;-66
2023/01/03 17:56:21;;;;;;;7.42;4.25;;;;;;;7.31;100.00;100145.11;1651488;84;22073;-66
2023/01/03 17:58:49;;;;;;;5.33;3.85;;;;;;;7.30;100.00;100149.48;1643497;84;21695;-65
2023/01/03 18:01:16;;;;;;;5.67;4.10;;;;;;;7.32;100.00;100152.94;1653803;86;21454;-65
2023/01/03 18:03:47;;;;;;;5.22;4.45;;;;;;;7.30;100.00;100152.11;1652566;84;21608;-64
2023/01/03 18:06:17;;;;;;;4.47;4.00;;;;;;;7.27;100.00;100149.58;1656178;86;21648;-65
2023/01/03 18:08:44;;;;;;;4.20;3.60;;;;;;;7.26;100.00;100150.45;1652842;86;21801;-64
2023/01/03 18:11:15;;;;;;;5.22;4.08;;;;;;;7.27;100.00;100152.19;1656879;84;21667;-64
2023/01/03 18:13:42;;;;;;;4.85;3.62;;;;;;;7.25;100.00;100154.41;1658751;84;21510;-64
2023/01/03 18:16:15;;;;;;;5.40;3.87;;;;;;;7.20;100.00;100155.37;1654955;84;21431;-64
2023/01/03 18:18:42;;;;;;;5.45;3.70;;;;;;;7.21;100.00;100155.80;1641935;85;21101;-64
2023/01/03 18:21:20;;;;;;;4.37;3.77;;;;;;;7.22;100.00;100147.49;1649523;85;21801;-68
2023/01/03 18:23:53;;;;;;;4.50;3.45;;;;;;;7.19;100.00;100156.25;1657646;84;20962;-64